createdAt,value
2023-09-21T00:01:08.474Z,16.31
2023-09-21T00:03:36.094Z,16.32
2023-09-21T00:06:04.927Z,16.28
2023-09-21T00:08:32.660Z,16.25
2023-09-21T00:10:59.800Z,16.24
2023-09-21T00:13:30.098Z,16.22
2023-09-21T00:16:01.576Z,16.24
2023-09-21T00:18:30.548Z,16.20
2023-09-21T00:20:58.461Z,16.17
2023-09-21T00:23:25.814Z,16.15
2023-09-21T00:25:59.266Z,16.12
2023-09-21T00:28:26.548Z,16.09
2023-09-21T00:30:58.356Z,16.04
2023-09-21T00:33:25.831Z,16.00
2023-09-21T00:35:52.452Z,16.04
2023-09-21T00:38:20.791Z,16.04
2023-09-21T00:40:48.919Z,16.05
2023-09-21T00:43:22.550Z,16.02
2023-09-21T00:45:52.841Z,16.00
2023-09-21T00:48:26.642Z,15.99
2023-09-21T00:50:55.590Z,15.94
2023-09-21T00:53:23.815Z,15.92
2023-09-21T00:55:56.664Z,15.91
2023-09-21T00:58:24.180Z,15.92
2023-09-21T01:00:51.950Z,15.88
2023-09-21T01:03:18.797Z,15.90
2023-09-21T01:05:46.922Z,15.86
2023-09-21T01:08:18.059Z,15.84
2023-09-21T01:10:50.068Z,15.83
2023-09-21T01:13:18.257Z,15.77
2023-09-21T01:15:46.444Z,15.73
2023-09-21T01:18:17.982Z,15.69
2023-09-21T01:20:46.016Z,15.64
2023-09-21T01:23:20.300Z,15.59
2023-09-21T01:25:51.498Z,15.58
2023-09-21T01:28:20.791Z,15.55
2023-09-21T01:30:47.962Z,15.47
2023-09-21T01:33:16.326Z,15.48
2023-09-21T01:35:46.609Z,15.45
2023-09-21T01:38:14.019Z,15.40
2023-09-21T01:40:41.935Z,15.42
2023-09-21T01:43:10.034Z,15.42
2023-09-21T01:45:41.288Z,15.44
2023-09-21T01:48:11.575Z,15.41
2023-09-21T01:50:44.344Z,15.41
2023-09-21T01:53:11.367Z,15.40
2023-09-21T01:55:38.777Z,15.36
2023-09-21T01:58:06.522Z,15.31
2023-09-21T02:00:36.441Z,15.32
2023-09-21T02:03:05.771Z,15.23
2023-09-21T02:05:32.468Z,15.26
2023-09-21T02:08:00.124Z,15.23
2023-09-21T02:10:26.590Z,15.18
2023-09-21T02:12:57.868Z,15.17
2023-09-21T02:15:25.622Z,15.15
2023-09-21T02:17:55.352Z,15.16
2023-09-21T02:20:22.513Z,15.21
2023-09-21T02:22:50.441Z,15.26
2023-09-21T02:25:18.890Z,15.32
2023-09-21T02:27:48.992Z,15.32
2023-09-21T02:30:24.783Z,15.27
2023-09-21T02:32:53.007Z,15.29
2023-09-21T02:35:28.961Z,15.28
2023-09-21T02:37:56.841Z,15.28
2023-09-21T02:40:25.041Z,15.24
2023-09-21T02:42:53.474Z,15.20
2023-09-21T02:45:25.310Z,15.16
2023-09-21T02:47:55.974Z,15.11
2023-09-21T02:50:23.300Z,15.10
2023-09-21T02:52:57.825Z,15.03
2023-09-21T02:55:27.780Z,15.05
2023-09-21T02:57:56.637Z,15.04
2023-09-21T03:00:44.788Z,14.98
2023-09-21T03:03:16.810Z,15.01
2023-09-21T03:05:48.744Z,15.03
2023-09-21T03:08:16.591Z,15.03
2023-09-21T03:10:54.808Z,15.09
2023-09-21T03:13:22.663Z,15.09
2023-09-21T03:15:51.713Z,15.12
2023-09-21T03:18:20.278Z,15.17
2023-09-21T03:20:47.108Z,15.16
2023-09-21T03:23:15.307Z,15.24
2023-09-21T03:25:46.955Z,15.23
2023-09-21T03:28:15.577Z,15.23
2023-09-21T03:30:50.525Z,15.28
2023-09-21T03:33:19.633Z,15.32
2023-09-21T03:35:47.021Z,15.40
2023-09-21T03:38:13.852Z,15.45
2023-09-21T03:40:41.563Z,15.47
2023-09-21T03:43:11.054Z,15.51
2023-09-21T03:45:42.678Z,15.55
2023-09-21T03:48:10.684Z,15.57
2023-09-21T03:50:41.172Z,15.60
2023-09-21T03:53:10.618Z,15.60
2023-09-21T03:55:39.942Z,15.60
2023-09-21T03:58:08.100Z,15.63
2023-09-21T04:00:34.869Z,15.68
2023-09-21T04:03:03.469Z,15.64
2023-09-21T04:05:32.213Z,15.71
2023-09-21T04:07:59.945Z,15.72
2023-09-21T04:10:26.956Z,15.77
2023-09-21T04:12:56.548Z,15.78
2023-09-21T04:15:28.106Z,15.85
2023-09-21T04:17:56.142Z,15.89
2023-09-21T04:20:23.005Z,15.93
2023-09-21T04:22:51.506Z,15.99
2023-09-21T04:25:18.815Z,15.99
2023-09-21T04:27:47.093Z,16.06
2023-09-21T04:30:15.830Z,16.07
2023-09-21T04:32:44.378Z,16.13
2023-09-21T04:35:10.994Z,16.18
2023-09-21T04:37:40.364Z,16.15
2023-09-21T04:40:11.459Z,16.21
2023-09-21T04:42:39.819Z,16.25
2023-09-21T04:45:10.143Z,16.31
2023-09-21T04:47:41.304Z,16.29
2023-09-21T04:50:11.039Z,16.36
2023-09-21T04:52:37.648Z,16.36
2023-09-21T04:55:05.904Z,16.36
2023-09-21T04:57:32.922Z,16.34
2023-09-21T04:59:59.669Z,16.31
2023-09-21T05:02:27.333Z,16.28
2023-09-21T05:04:54.160Z,16.31
2023-09-21T05:07:20.673Z,16.33
2023-09-21T05:09:47.428Z,16.31
2023-09-21T05:12:14.323Z,16.27
2023-09-21T05:14:41.064Z,16.27
2023-09-21T05:17:07.468Z,16.29
2023-09-21T05:19:34.338Z,16.29
2023-09-21T05:22:01.863Z,16.30
2023-09-21T05:24:28.353Z,16.32
2023-09-21T05:26:55.102Z,16.36
2023-09-21T05:29:23.012Z,16.38
2023-09-21T05:31:50.856Z,16.42
2023-09-21T05:34:18.113Z,16.45
2023-09-21T05:36:48.646Z,16.48
2023-09-21T05:39:18.203Z,16.49
2023-09-21T05:41:45.525Z,16.49
2023-09-21T05:44:12.031Z,16.56
2023-09-21T05:46:39.634Z,16.57
2023-09-21T05:49:08.941Z,16.57
2023-09-21T05:51:37.717Z,16.56
2023-09-21T05:54:04.932Z,16.61
2023-09-21T05:56:32.520Z,16.66
2023-09-21T05:59:01.125Z,16.74
2023-09-21T06:01:32.299Z,16.85
2023-09-21T06:04:01.196Z,16.93
2023-09-21T06:06:31.357Z,17.07
2023-09-21T06:08:58.431Z,17.20
2023-09-21T06:11:26.320Z,17.30
2023-09-21T06:13:55.884Z,17.45
2023-09-21T06:16:22.951Z,17.53
2023-09-21T06:18:49.898Z,17.59
2023-09-21T06:21:19.756Z,17.64
2023-09-21T06:23:46.444Z,17.70
2023-09-21T06:26:16.196Z,17.73
2023-09-21T06:28:48.709Z,17.79
2023-09-21T06:31:16.082Z,17.78
2023-09-21T06:33:42.624Z,17.81
2023-09-21T06:36:22.349Z,17.83
2023-09-21T06:38:48.920Z,17.82
2023-09-21T06:41:15.755Z,17.81
2023-09-21T06:43:45.376Z,17.82
2023-09-21T06:46:13.017Z,17.79
2023-09-21T06:48:42.980Z,17.82
2023-09-21T06:51:10.035Z,17.82
2023-09-21T06:53:37.389Z,17.88
2023-09-21T06:56:04.621Z,17.91
2023-09-21T06:58:31.848Z,17.95
2023-09-21T07:00:59.794Z,17.98
2023-09-21T07:03:26.607Z,18.03
2023-09-21T07:05:54.936Z,18.09
2023-09-21T07:08:23.820Z,18.12
2023-09-21T07:10:50.310Z,18.16
2023-09-21T07:13:20.204Z,18.22
2023-09-21T07:15:50.169Z,18.25
2023-09-21T07:18:17.601Z,18.31
2023-09-21T07:20:44.535Z,18.34
2023-09-21T07:23:11.525Z,18.44
2023-09-21T07:25:38.659Z,18.50
2023-09-21T07:28:06.034Z,18.57
2023-09-21T07:30:34.020Z,18.65
2023-09-21T07:33:02.231Z,18.76
2023-09-21T07:35:29.287Z,18.77
2023-09-21T07:37:55.919Z,18.81
2023-09-21T07:40:22.828Z,18.83
2023-09-21T07:42:51.856Z,18.88
2023-09-21T07:45:19.190Z,18.94
2023-09-21T07:47:47.185Z,18.98
2023-09-21T07:50:13.946Z,19.02
2023-09-21T07:52:40.650Z,19.07
2023-09-21T07:55:09.920Z,19.08
2023-09-21T07:57:41.238Z,19.11
2023-09-21T08:00:11.892Z,19.14
2023-09-21T08:02:38.298Z,19.20
2023-09-21T08:05:07.058Z,19.21
2023-09-21T08:07:34.332Z,19.20
2023-09-21T08:10:04.900Z,19.22
2023-09-21T08:12:31.787Z,19.17
2023-09-21T08:15:02.119Z,19.34
2023-09-21T08:17:32.081Z,19.42
2023-09-21T08:19:58.455Z,19.51
2023-09-21T08:22:25.180Z,19.63
2023-09-21T08:24:51.748Z,19.75
2023-09-21T08:27:19.307Z,19.86
2023-09-21T08:29:45.720Z,19.92
2023-09-21T08:32:13.828Z,20.05
2023-09-21T08:34:40.955Z,20.13
2023-09-21T08:37:07.406Z,20.19
2023-09-21T08:39:33.952Z,20.29
2023-09-21T08:42:01.309Z,20.32
2023-09-21T08:44:28.830Z,20.35
2023-09-21T08:46:56.179Z,20.38
2023-09-21T08:49:23.433Z,20.37
2023-09-21T08:51:53.210Z,20.35
2023-09-21T08:54:24.583Z,20.34
2023-09-21T08:56:56.345Z,20.26
2023-09-21T08:59:23.356Z,20.25
2023-09-21T09:01:50.231Z,20.28
2023-09-21T09:04:16.958Z,20.26
2023-09-21T09:06:43.583Z,20.22
2023-09-21T09:09:11.006Z,20.28
2023-09-21T09:11:44.035Z,20.32
2023-09-21T09:14:15.412Z,20.37
2023-09-21T09:16:42.500Z,20.43
2023-09-21T09:19:10.404Z,20.52
2023-09-21T09:21:37.047Z,20.77
2023-09-21T09:24:05.480Z,21.05
2023-09-21T09:26:32.252Z,21.35
2023-09-21T09:29:05.487Z,21.76
2023-09-21T09:31:32.533Z,22.11
2023-09-21T09:34:00.460Z,22.30
2023-09-21T09:36:27.141Z,22.41
2023-09-21T09:38:54.200Z,22.52
2023-09-21T09:41:22.151Z,22.73
2023-09-21T09:43:53.646Z,23.06
2023-09-21T09:46:24.518Z,23.36
2023-09-21T09:48:52.694Z,23.69
2023-09-21T09:51:26.634Z,23.98
2023-09-21T09:53:54.918Z,24.34
2023-09-21T09:56:23.763Z,24.62
2023-09-21T09:58:51.224Z,24.89
2023-09-21T10:01:19.112Z,25.15
2023-09-21T10:03:51.833Z,25.55
2023-09-21T10:06:18.613Z,25.84
2023-09-21T10:08:47.766Z,25.85
2023-09-21T10:11:16.405Z,25.93
2023-09-21T10:13:52.896Z,25.94
2023-09-21T10:16:24.920Z,25.91
2023-09-21T10:18:58.906Z,25.90
2023-09-21T10:21:33.072Z,25.64
2023-09-21T10:24:09.538Z,25.39
2023-09-21T10:26:42.554Z,25.24
2023-09-21T10:29:09.280Z,25.26
2023-09-21T10:31:40.780Z,25.35
2023-09-21T10:34:08.905Z,25.44
2023-09-21T10:36:41.498Z,25.45
2023-09-21T10:39:18.609Z,25.55
2023-09-21T10:41:47.020Z,25.58
2023-09-21T10:44:33.392Z,25.55
2023-09-21T10:47:00.005Z,25.62
2023-09-21T10:49:34.696Z,25.69
2023-09-21T10:52:03.333Z,25.61
2023-09-21T10:54:30.099Z,25.50
2023-09-21T10:56:56.574Z,25.39
2023-09-21T10:59:22.941Z,25.22
2023-09-21T11:01:50.315Z,25.07
2023-09-21T11:04:17.106Z,24.98
2023-09-21T11:06:43.638Z,24.91
2023-09-21T11:09:10.073Z,24.90
2023-09-21T11:11:36.520Z,24.89
2023-09-21T11:14:06.390Z,24.95
2023-09-21T11:16:33.143Z,24.93
2023-09-21T11:19:00.064Z,24.90
2023-09-21T11:21:26.506Z,24.87
2023-09-21T11:23:54.388Z,24.82
2023-09-21T11:26:22.998Z,24.73
2023-09-21T11:28:58.266Z,24.64
2023-09-21T11:31:27.122Z,24.60
2023-09-21T11:33:55.206Z,24.61
2023-09-21T11:36:21.903Z,24.64
2023-09-21T11:38:51.232Z,24.69
2023-09-21T11:41:18.487Z,24.75
2023-09-21T11:43:44.826Z,24.75
2023-09-21T11:46:11.461Z,24.76
2023-09-21T11:48:38.137Z,24.74
2023-09-21T11:51:06.445Z,24.71
2023-09-21T11:53:33.583Z,24.71
2023-09-21T11:55:59.999Z,24.67
2023-09-21T11:58:31.063Z,24.75
2023-09-21T12:01:17.509Z,24.83
2023-09-21T12:03:43.960Z,24.97
2023-09-21T12:06:13.092Z,25.07
2023-09-21T12:08:41.050Z,25.21
2023-09-21T12:11:08.554Z,25.41
2023-09-21T12:13:36.390Z,25.50
2023-09-21T12:16:04.679Z,25.57
2023-09-21T12:18:31.712Z,25.74
2023-09-21T12:20:59.065Z,25.88
2023-09-21T12:23:26.531Z,25.95
2023-09-21T12:25:58.654Z,25.95
2023-09-21T12:28:25.050Z,25.92
2023-09-21T12:30:58.519Z,25.88
2023-09-21T12:33:51.750Z,25.87
2023-09-21T12:36:21.175Z,25.95
2023-09-21T12:38:53.920Z,26.00
2023-09-21T12:41:23.209Z,26.11
2023-09-21T12:43:49.547Z,26.24
2023-09-21T12:46:15.998Z,26.38
2023-09-21T12:48:42.357Z,26.57
2023-09-21T12:51:09.921Z,26.87
2023-09-21T12:53:36.482Z,27.19
2023-09-21T12:56:02.926Z,27.53
2023-09-21T12:58:30.777Z,27.72
2023-09-21T13:00:58.307Z,27.77
2023-09-21T13:03:24.919Z,27.94
2023-09-21T13:05:51.349Z,27.83
2023-09-21T13:08:17.784Z,27.57
2023-09-21T13:10:46.941Z,27.25
2023-09-21T13:13:13.565Z,26.94
2023-09-21T13:15:40.300Z,26.62
2023-09-21T13:18:06.833Z,26.47
2023-09-21T13:20:33.453Z,26.34
2023-09-21T13:23:00.243Z,26.29
2023-09-21T13:25:28.894Z,26.21
2023-09-21T13:27:55.243Z,26.11
2023-09-21T13:30:21.986Z,26.08
2023-09-21T13:32:48.467Z,26.41
2023-09-21T13:35:14.914Z,26.74
2023-09-21T13:37:41.572Z,26.88
2023-09-21T13:40:10.678Z,26.69
2023-09-21T13:42:38.009Z,26.52
2023-09-21T13:45:06.269Z,26.37
2023-09-21T13:47:32.722Z,26.30
2023-09-21T13:49:59.113Z,26.33
2023-09-21T13:52:25.452Z,26.42
2023-09-21T13:55:05.650Z,26.54
2023-09-21T13:57:41.281Z,26.53
2023-09-21T14:00:09.447Z,26.44
2023-09-21T14:02:36.092Z,26.31
2023-09-21T14:05:03.048Z,26.19
2023-09-21T14:07:29.606Z,26.08
2023-09-21T14:09:55.933Z,26.10
2023-09-21T14:12:22.494Z,26.08
2023-09-21T14:14:48.997Z,26.04
2023-09-21T14:17:15.390Z,25.99
2023-09-21T14:19:41.706Z,25.97
2023-09-21T14:22:08.069Z,25.96
2023-09-21T14:24:34.951Z,25.98
2023-09-21T14:27:01.400Z,25.95
2023-09-21T14:29:29.028Z,25.94
2023-09-21T14:31:55.519Z,25.91
2023-09-21T14:34:21.865Z,25.90
2023-09-21T14:36:48.536Z,25.90
2023-09-21T14:39:14.916Z,25.89
2023-09-21T14:41:42.439Z,25.87
2023-09-21T14:44:08.938Z,25.89
2023-09-21T14:46:35.329Z,25.88
2023-09-21T14:49:01.693Z,25.91
2023-09-21T14:51:28.237Z,25.81
2023-09-21T14:53:55.318Z,25.70
2023-09-21T14:56:22.134Z,25.62
2023-09-21T14:58:48.490Z,25.56
2023-09-21T15:01:15.601Z,25.40
2023-09-21T15:03:42.094Z,25.51
2023-09-21T15:06:08.659Z,25.53
2023-09-21T15:08:35.033Z,25.57
2023-09-21T15:11:01.710Z,25.55
2023-09-21T15:13:28.172Z,25.48
2023-09-21T15:15:54.652Z,25.42
2023-09-21T15:18:22.292Z,25.43
2023-09-21T15:20:49.466Z,25.37
2023-09-21T15:23:15.792Z,25.31
2023-09-21T15:25:42.273Z,25.27
2023-09-21T15:28:08.801Z,25.22
2023-09-21T15:30:38.569Z,25.18
2023-09-21T15:33:13.017Z,25.09
2023-09-21T15:35:49.243Z,25.11
2023-09-21T15:38:15.973Z,25.08
2023-09-21T15:40:46.744Z,25.03
2023-09-21T15:43:13.273Z,24.99
2023-09-21T15:45:39.758Z,24.93
2023-09-21T15:48:06.546Z,24.83
2023-09-21T15:50:33.000Z,24.80
2023-09-21T15:52:59.389Z,24.75
2023-09-21T15:55:25.827Z,24.67
2023-09-21T15:57:52.165Z,24.63
2023-09-21T16:00:18.547Z,24.56
2023-09-21T16:02:45.309Z,24.49
2023-09-21T16:05:12.301Z,24.39
2023-09-21T16:07:38.658Z,24.38
2023-09-21T16:10:05.383Z,24.34
2023-09-21T16:12:31.843Z,24.28
2023-09-21T16:14:58.295Z,24.21
2023-09-21T16:17:24.728Z,24.17
2023-09-21T16:19:51.078Z,24.12
2023-09-21T16:22:17.575Z,24.06
2023-09-21T16:24:44.144Z,24.01
2023-09-21T16:27:10.900Z,23.94
2023-09-21T16:29:37.218Z,23.90
2023-09-21T16:32:04.881Z,23.79
2023-09-21T16:34:31.757Z,23.82
2023-09-21T16:36:58.433Z,23.79
2023-09-21T16:39:25.883Z,23.75
2023-09-21T16:41:52.317Z,23.68
2023-09-21T16:44:18.709Z,23.65
2023-09-21T16:46:45.791Z,23.58
2023-09-21T16:49:12.661Z,23.55
2023-09-21T16:51:39.115Z,23.48
2023-09-21T16:54:07.763Z,23.40
2023-09-21T16:56:35.896Z,23.34
2023-09-21T16:59:02.787Z,23.29
2023-09-21T17:01:30.402Z,23.25
2023-09-21T17:03:57.980Z,23.18
2023-09-21T17:06:24.551Z,23.15
2023-09-21T17:08:50.985Z,23.11
2023-09-21T17:11:18.090Z,23.05
2023-09-21T17:13:44.666Z,23.01
2023-09-21T17:16:11.403Z,22.95
2023-09-21T17:18:37.867Z,22.91
2023-09-21T17:21:04.499Z,22.92
2023-09-21T17:23:30.870Z,22.93
2023-09-21T17:25:57.241Z,23.04
2023-09-21T17:28:23.631Z,23.15
2023-09-21T17:30:50.312Z,23.29
2023-09-21T17:33:16.718Z,23.15
2023-09-21T17:35:43.119Z,22.77
2023-09-21T17:38:11.706Z,22.42
2023-09-21T17:40:38.062Z,22.14
2023-09-21T17:43:05.327Z,21.71
2023-09-21T17:45:31.766Z,21.36
2023-09-21T17:48:02.225Z,21.13
2023-09-21T17:50:30.345Z,20.92
2023-09-21T17:52:56.910Z,20.77
2023-09-21T17:55:23.601Z,20.62
2023-09-21T17:57:49.975Z,20.61
2023-09-21T18:00:16.657Z,20.56
2023-09-21T18:02:43.870Z,20.60
2023-09-21T18:05:10.757Z,20.61
2023-09-21T18:07:37.819Z,20.56
2023-09-21T18:10:05.804Z,20.42
2023-09-21T18:12:32.652Z,20.31
2023-09-21T18:14:59.003Z,20.19
2023-09-21T18:17:25.333Z,20.11
2023-09-21T18:19:51.680Z,19.89
2023-09-21T18:22:18.038Z,19.79
2023-09-21T18:24:44.474Z,19.73
2023-09-21T18:27:10.949Z,19.77
2023-09-21T18:29:37.297Z,19.71
2023-09-21T18:32:03.768Z,19.65
2023-09-21T18:34:30.722Z,19.62
2023-09-21T18:36:57.053Z,19.61
2023-09-21T18:39:24.564Z,19.59
2023-09-21T18:41:50.990Z,19.64
2023-09-21T18:44:17.302Z,19.65
2023-09-21T18:46:44.002Z,19.64
2023-09-21T18:49:10.516Z,19.65
2023-09-21T18:51:37.133Z,19.61
2023-09-21T18:54:04.200Z,19.54
2023-09-21T18:56:30.534Z,19.46
2023-09-21T18:58:57.277Z,19.29
2023-09-21T19:01:24.789Z,19.15
2023-09-21T19:03:52.769Z,19.00
2023-09-21T19:06:22.490Z,18.84
2023-09-21T19:08:52.734Z,18.59
2023-09-21T19:11:22.269Z,18.44
2023-09-21T19:13:50.734Z,18.30
2023-09-21T19:16:17.439Z,18.22
2023-09-21T19:18:44.345Z,18.17
2023-09-21T19:21:11.939Z,18.09
2023-09-21T19:23:38.800Z,18.01
2023-09-21T19:26:05.205Z,17.92
2023-09-21T19:28:32.329Z,17.88
2023-09-21T19:31:00.488Z,17.80
2023-09-21T19:33:27.752Z,17.78
2023-09-21T19:35:55.214Z,17.70
2023-09-21T19:38:22.529Z,17.67
2023-09-21T19:40:49.095Z,17.59
2023-09-21T19:43:15.525Z,17.51
2023-09-21T19:45:42.054Z,17.53
2023-09-21T19:48:08.545Z,17.49
2023-09-21T19:50:35.032Z,17.47
2023-09-21T19:53:01.468Z,17.48
2023-09-21T19:55:29.153Z,17.47
2023-09-21T19:57:55.489Z,17.43
2023-09-21T20:00:22.080Z,17.48
2023-09-21T20:02:48.701Z,17.49
2023-09-21T20:05:15.254Z,17.44
2023-09-21T20:07:41.514Z,17.44
2023-09-21T20:10:08.474Z,17.41
2023-09-21T20:12:35.056Z,17.41
2023-09-21T20:15:01.788Z,17.39
2023-09-21T20:17:28.153Z,17.33
2023-09-21T20:19:54.502Z,17.31
2023-09-21T20:22:20.834Z,17.27
2023-09-21T20:27:13.814Z,17.29
2023-09-21T20:29:40.102Z,17.29
2023-09-21T20:32:06.946Z,17.28
2023-09-21T20:34:33.445Z,17.29
2023-09-21T20:37:00.470Z,17.30
2023-09-21T20:39:27.097Z,17.26
2023-09-21T20:41:55.837Z,17.28
2023-09-21T20:44:23.281Z,17.29
2023-09-21T20:46:49.762Z,17.28
2023-09-21T20:49:16.128Z,17.20
2023-09-21T20:51:42.568Z,17.27
2023-09-21T20:54:08.940Z,17.26
2023-09-21T20:56:35.359Z,17.22
2023-09-21T20:59:01.783Z,17.15
2023-09-21T21:01:28.064Z,17.22
2023-09-21T21:03:54.577Z,17.22
2023-09-21T21:06:21.000Z,17.15
2023-09-21T21:08:48.246Z,17.14
2023-09-21T21:11:14.575Z,17.17
2023-09-21T21:13:40.923Z,17.18
2023-09-21T21:16:08.007Z,17.17
2023-09-21T21:18:34.837Z,17.18
2023-09-21T21:21:01.211Z,17.17
2023-09-21T21:23:27.830Z,17.20
2023-09-21T21:25:54.232Z,17.21
2023-09-21T21:28:20.542Z,17.22
2023-09-21T21:30:47.661Z,17.22
2023-09-21T21:33:14.128Z,17.21
2023-09-21T21:35:40.606Z,17.21
2023-09-21T21:38:07.253Z,17.13
2023-09-21T21:40:33.622Z,17.20
2023-09-21T21:43:00.050Z,17.19
2023-09-21T21:45:26.592Z,17.21
2023-09-21T21:47:53.024Z,17.19
2023-09-21T21:50:20.210Z,17.22
2023-09-21T21:52:46.605Z,17.20
2023-09-21T21:55:12.868Z,17.19
2023-09-21T21:57:40.868Z,17.18
2023-09-21T22:00:19.745Z,17.18
2023-09-21T22:02:46.939Z,17.14
2023-09-21T22:05:13.458Z,17.13
2023-09-21T22:07:40.139Z,17.19
2023-09-21T22:10:07.294Z,17.17
2023-09-21T22:12:35.703Z,17.14
2023-09-21T22:15:03.334Z,17.14
2023-09-21T22:17:32.659Z,17.13
2023-09-21T22:19:59.341Z,17.10
2023-09-21T22:22:27.625Z,17.12
2023-09-21T22:24:54.028Z,17.09
2023-09-21T22:27:21.349Z,17.06
2023-09-21T22:29:47.835Z,17.05
2023-09-21T22:32:14.085Z,17.07
2023-09-21T22:34:41.630Z,17.09
2023-09-21T22:37:11.813Z,17.08
2023-09-21T22:39:38.811Z,17.05
2023-09-21T22:42:05.271Z,17.03
2023-09-21T22:44:31.654Z,17.04
2023-09-21T22:46:58.016Z,17.08
2023-09-21T22:49:27.582Z,17.04
2023-09-21T22:51:53.928Z,17.02
2023-09-21T22:54:20.336Z,17.00
2023-09-21T22:56:46.673Z,17.00
2023-09-21T22:59:13.128Z,16.99
2023-09-21T23:01:41.214Z,16.99
2023-09-21T23:04:07.972Z,16.99
2023-09-21T23:06:35.022Z,17.02
2023-09-21T23:09:01.646Z,16.99
2023-09-21T23:11:29.045Z,17.00
2023-09-21T23:13:58.151Z,16.99
2023-09-21T23:16:25.772Z,16.98
2023-09-21T23:18:53.209Z,16.99
2023-09-21T23:21:20.909Z,16.99
2023-09-21T23:23:48.315Z,16.98
2023-09-21T23:26:17.194Z,16.98
2023-09-21T23:28:44.143Z,16.93
2023-09-21T23:31:11.732Z,16.94
2023-09-21T23:33:39.364Z,16.91
2023-09-21T23:36:12.320Z,16.94
2023-09-21T23:38:42.127Z,16.90
2023-09-21T23:41:11.707Z,16.89
2023-09-21T23:43:41.670Z,16.85
2023-09-21T23:46:11.830Z,16.89
2023-09-21T23:48:39.893Z,16.89
2023-09-21T23:51:12.221Z,16.90
2023-09-21T23:53:38.732Z,16.90
2023-09-21T23:56:05.286Z,16.88
2023-09-21T23:58:32.042Z,16.85
